AirNav   ATP
 
 1447 users online  

6Y0 Moorestown Airpark
Moorestown, Michigan, USA

GOING TO MOORESTOWN?


FAA INFORMATION EFFECTIVE 01 FEBRUARY 2018

Location

FAA Identifier: 6Y0
Lat/Long: 44-27-46.7200N / 084-59-47.8300W
44-27.778667N / 084-59.797167W
44.4629778 / -84.9966194
(estimated)
Elevation: 1213 ft. / 370 m (estimated)
Variation: 05W (1985)
From city: 1 mile SE of MOORESTOWN, MI
Time zone: UTC -5 (UTC -4 during Daylight Saving Time)
Zip code: 49651

Airport Operations

Airport use: Open to the public
Activation date: 08/1970
Control tower: no
ARTCC: MINNEAPOLIS CENTER
FSS: LANSING FLIGHT SERVICE STATION
NOTAMs facility: LAN (NOTAM-D service available)
Attendance: APR-NOV DAWN-DUSK
Wind indicator: yes
Segmented circle: yes

Airport Communications

CTAF: 122.9
WX ASOS at HTL (15 nm SE): 118.05 (989-366-4825)
WX AWOS-3 at GOV (17 nm NE): 119.075 (989-348-3127)

Nearby radio navigation aids

VOR radial/distance  VOR name  Freq  Var
CGGr227/(17.4)GRAYLING VOR109.8006W
TVCr119/26.7TRAVERSE CITY VOR/DME114.6002W
GLRr207/35.2GAYLORD VOR/DME109.2006W
BXZr297/37.3WEST BRANCH VOR/DME113.2006W

 
NDB name  Hdg/Dist  Freq  Var  ID
GRAYLING209/18.735906WGYG --. -.-- --.

Airport Services

Parking: tiedowns
Airframe service: NONE
Powerplant service: NONE
Bottled oxygen: NONE
Bulk oxygen: NONE

Runway Information

Runway 3/21

Dimensions: 2800 x 100 ft. / 853 x 30 m
Surface: turf, in fair condition
Runway edge markings: 03/21 MKD WITH 3 FT YELLOW CONES.
RUNWAY 3  RUNWAY 21
Latitude: 44-27.516167N44-27.933500N
Longitude: 084-59.860833W084-59.590167W
Elevation: 1213.0 ft.1213.0 ft.
Traffic pattern: leftleft
Displaced threshold: 801 ft.991 ft.
Runway end identifier lights: nono
Obstructions: 58 ft. tree, 232 ft. from runway, 132 ft. right of centerline, 4:1 slope to clear
APCH RATIO 20:1 AT DSPLCD THLD.
60 ft. trees, 180 ft. from runway, 3:1 slope to clear
APCH RATIO 20:1 AT DSPLCD THLD.

Runway 9/27

Dimensions: 2600 x 100 ft. / 792 x 30 m
Surface: turf, in fair condition
Runway edge markings: 09/27 MKD WITH 3 FT YELLOW CONES.
RUNWAY 9  RUNWAY 27
Latitude: 44-27.840833N44-27.832667N
Longitude: 085-00.172667W084-59.575833W
Elevation: 1213.0 ft.1213.0 ft.
Traffic pattern: leftleft
Displaced threshold: 600 ft.427 ft.
Runway end identifier lights: nono
Obstructions: 43 ft. trees, 80 ft. right of centerline
APCH RATIO 0:1 AT DSPLCD THLD OVR 40 FT. TREES, 30 FT. DSTC, 80 FT. R; 20:1 OVR 51 FT. TREES, 1030 FT. DSTC, 75 FT. R BASED ON STRAIGHT OUT.
15 ft. road, 34 ft. from runway, 2:1 slope to clear
APCH RATIO 30:1 AT DSPLCD THLD OVER 15 FT RD, 463 DSTC, 0B.

Airport Ownership and Management from official FAA records

Ownership: Privately-owned
Owner: LOIS WHIPPLE
4840 E. MOORESTOWN RD
LAKE CITY, MI 49651
Phone 231-229-4232
Manager: LOIS WHIPPLE
4840 E. MOORESTOWN RD
LAKE CITY, MI 49651
Phone 231-229-4232
EVENING PHONE NUMBER 231-224-4443

Airport Operational Statistics

Aircraft based on the field: 2
Single engine airplanes: 2
    
Aircraft operations: avg 25/month *
50% transient general aviation
50% local general aviation
* for 12-month period ending 31 December 2015

Additional Remarks

NO SNOW REMOVAL, WINTER OPNS FOR SKI-EQUIPPED ACFT ONLY.

Instrument Procedures

There are no published instrument procedures at 6Y0.

Some nearby airports with instrument procedures:

KHTL - Roscommon County - Blodgett Memorial Airport (15 nm SE)
KGOV - Grayling Army Airfield (17 nm NE)
KCAD - Wexford County Airport (21 nm SW)
KTVC - Cherry Capital Airport (30 nm NW)
KACB - Antrim County Airport (33 nm N)
 
Loc | Ops | Rwys | IFR | FBO | Links
Com | Nav | Svcs | Stats | Notes

AirNav Hotels Sweepstakes
 
Area around 6Y0 (Moorestown Airpark)
 
Road maps at: MapQuest Bing Google
 
Aerial photo
No photo
 
Sectional chart

 
Airport distance calculator
Flying to Moorestown Airpark? Find the distance to fly.

From to 6Y0

Sunrise and sunset
Times for 19-Feb-2018
 Local
(UTC-5)
 Zulu
(UTC)
Morning civil twilight07:0512:05
Sunrise07:3512:35
Sunset18:1323:13
Evening civil twilight18:4323:43

Current date and time
Zulu (UTC)  19-Feb-2018 19:01:06
Local (UTC-5)  19-Feb-2018 14:01:06
 
METAR
KHTL 
16nm SE 
191853Z AUTO 14005KT 10SM BKN039 OVC090 04/M01 A2991 RMK AO2 SLP141 T00441006
KGOV 
17nm NE 
191758Z AUTO 00000KT 7SM BKN060 BKN110 BKN130 03/00 A2992 RMK AO2 SLP150 T00341005 10034 21003 53005
KCAD 
22nm SW 
191855Z AUTO 05008KT 10SM -RA BKN035 OVC050 03/00 A2986 RMK AO2 T00400004
KTVC 
29nm NW 
191853Z 02004KT 9SM -RA SCT044 BKN065 OVC090 04/00 A2991 RMK AO2 RAB07E24B53 SLP134 P0000 T00440000
TAF
KTVC 
29nm NW 
191720Z 1918/2018 VRB03KT P6SM OVC040 FM192000 VRB03KT 6SM -SHRA OVC025 FM200000 04006KT 3SM -SHRA BR OVC015 FM200600 09006KT 2SM -SHRA BR OVC008 FM201200 15004KT 1 1/2SM -RA BR OVC003 FM201600 18006KT 2SM -RA BR OVC008 FM201700 20007KT 3SM -RA BR OVC010 WS015/23030KT
NOTAMs
Click for the latest NOTAMs
NOTAMs are issued by the DoD/FAA and will open in a separate window not controlled by AirNav.

 

 
 

Would you like to see your business listed on this page?

 If your business provides an interesting product or service to pilots, flight crews, aircraft, or users of the Moorestown Airpark, you should consider listing it here.  To start the listing process, click on the button below
 
Add a business
 

Other Pages about Moorestown Airpark

Page from the Michigan Airport Directory (PDF)
 
Update a link
 
Copyright © AirNav, LLC. All rights reserved. Privacy Policy  Contact